Saturday, November 18, 2017, 11:09 PM GMT
Back to Local

CYPD, Port Hawkesbury

Location: , , Canada Lat: 45.667
Local Time: 11:09 PM GMT (23:09 GMT) Lon: -61.383
Time Zone: GMT Elev: 374 ft

Show me the last for .
Show Decoded

2017-11-18 22:00 METAR CYPD 182200Z AUTO 30011G22KT 9SM -RA BKN011 OVC018 02/01 A2971 RMK SLP068
                 =
2017-11-18 21:37 METAR CYPD 182137Z AUTO 30014G23KT 7SM -RA BKN011 OVC018 02/01 A2969 RMK SLP062
                 =
2017-11-18 21:24 METAR CYPD 182124Z AUTO 29011G24KT 5SM -RA BR BKN011 OVC018 02/01 A2969 RMK
                 SLP061 =
2017-11-18 21:16 METAR CYPD 182116Z AUTO 30014G24KT 6SM -RA BR BKN011 OVC018 02/01 A2969 RMK
                 PRESRR SLP060 =
2017-11-18 21:12 METAR CYPD 182112Z AUTO 30016G23KT 6SM -RA BR BKN009 OVC018 02/01 A2969 RMK
                 PRESRR SLP059 =
2017-11-18 21:00 METAR CYPD 182100Z AUTO 31014G24KT 4SM -RA BR BKN009 OVC016 02/01 A2967 RMK
                 SLP055 =
2017-11-18 20:56 METAR CYPD 182056Z AUTO 30013G24KT 3SM -RA BR BKN009 OVC016 02/01 A2967 RMK
                 SLP053 =
2017-11-18 20:26 METAR CYPD 182026Z AUTO 31012G24KT 2 1/2SM -RA BR BKN011 OVC014 02/01 A2966 RMK
                 VIS VRB 1 1/2-3 SLP050 =
2017-11-18 20:00 METAR CYPD 182000Z AUTO 30013G27KT 5SM -RA BR OVC013 02/01 A2965 RMK SLP045 =
2017-11-18 19:59 METAR CYPD 181959Z AUTO 30014G27KT 5SM -RA BR OVC013 02/01 A2965 RMK SLP046 =
2017-11-18 19:19 METAR CYPD 181919Z AUTO 30016G27KT 9SM -RA OVC011 02/01 A2963 RMK SLP038 =
2017-11-18 19:11 METAR CYPD 181911Z AUTO 30016G30KT 9SM FEW006 OVC011 02/01 A2962 RMK SLP038 =
2017-11-18 19:03 METAR CYPD 181903Z AUTO 31014G26KT 280V340 8SM BKN008 OVC014 02/01 A2962 RMK
                 SLP037 =
2017-11-18 19:00 METAR CYPD 181900Z AUTO 30016G25KT 280V340 8SM -RA BKN008 OVC014 02/01 A2962 RMK
                 SLP037 =
2017-11-18 18:50 METAR CYPD 181850Z AUTO 31012G24KT 280V340 6SM -RA BR BKN008 OVC014 02/01 A2961
                 RMK SLP034 =
2017-11-18 18:10 METAR CYPD 181810Z AUTO 30014G26KT 5SM -RA BR OVC010 02/00 A2960 RMK SLP030 =
2017-11-18 18:00 METAR CYPD 181800Z AUTO 30017G30KT 9SM -RA OVC012 02/M00 A2960 RMK SLP029 =
2017-11-18 17:45 METAR CYPD 181745Z AUTO 29017G29KT 9SM -RA OVC014 02/M01 A2959 RMK SLP027 =
2017-11-18 17:00 METAR CYPD 181700Z AUTO 30019G31KT 9SM OVC014 02/M01 A2959 RMK SLP026 =
2017-11-18 16:00 METAR CYPD 181600Z AUTO 30017G33KT 9SM OVC016 02/M01 A2958 RMK SLP021 =
2017-11-18 15:00 METAR CYPD 181500Z AUTO 30024G35KT 9SM OVC016 01/M02 A2958 RMK SLP021 =
2017-11-18 14:00 METAR CYPD 181400Z AUTO 28016G30KT 9SM OVC016 01/M01 A2956 RMK SLP017 =
2017-11-18 13:00 METAR CYPD 181300Z AUTO 28019G30KT 9SM OVC016 01/M01 A2955 RMK SLP011 =
2017-11-18 12:00 METAR CYPD 181200Z AUTO 29018G27KT 9SM OVC016 02/M01 A2952 RMK SLP003 =
2017-11-18 11:00 METAR CYPD 181100Z AUTO 29019G37KT 9SM OVC018 02/M01 A2949 RMK SLP994 =
2017-11-18 10:00 METAR CYPD 181000Z AUTO 29021G32KT 9SM OVC018 01/M01 A2947 RMK SLP985 =
2017-11-18 09:49 METAR CYPD 180949Z AUTO 28019G34KT 9SM BKN016 OVC022 01/M01 A2947 RMK SLP983 =
2017-11-18 09:22 METAR CYPD 180922Z AUTO 29024G32KT 7SM -RA SCT011 OVC016 01/M00 A2945 RMK SLP977
                 =
2017-11-18 09:12 METAR CYPD 180912Z AUTO 28020G37KT 5SM -RA BR BKN011 OVC017 01/M00 A2945 RMK
                 SLP977 =
2017-11-18 09:00 METAR CYPD 180900Z AUTO 28019G28KT 8SM -RA BKN012 OVC018 01/M00 A2944 RMK SLP976
                 =
2017-11-18 08:24 METAR CYPD 180824Z AUTO 29021G32KT 9SM -RA OVC016 02/M00 A2944 RMK SLP974 =
2017-11-18 08:12 METAR CYPD 180812Z AUTO 28021G32KT 9SM FEW007 BKN016 OVC025 02/M00 A2943 RMK
                 SLP971 =
2017-11-18 08:00 METAR CYPD 180800Z AUTO 28019G33KT 9SM -RA SCT005 SCT010 BKN016 OVC020 01/00
                 A2943 RMK SLP970 =
2017-11-18 07:56 METAR CYPD 180756Z AUTO 27022G30KT 250V310 9SM -RA SCT005 BKN010 BKN014 OVC021
                 01/00 A2942 RMK ICG PAST HR SLP969 =
2017-11-18 07:30 METAR CYPD 180730Z AUTO 26015G25KT 6SM -RA BR OVC005 00/M00 A2942 RMK ICG PAST
                 HR SLP967 =
2017-11-18 07:18 METAR CYPD 180718Z AUTO 26015G22KT 3SM -RA BR OVC005 00/M00 A2941 RMK ICG PAST
                 HR SLP966 =
2017-11-18 07:15 METAR CYPD 180715Z AUTO 26016G22KT 2 1/2SM -RA BR OVC005 00/M00 A2941 RMK ICG
                 PAST HR SLP966 =
2017-11-18 07:14 METAR CYPD 180714Z AUTO 26015G22KT 2 1/2SM -RASN OVC005 00/M01 A2941 RMK ICG
                 PAST HR SLP966 =
2017-11-18 07:13 METAR CYPD 180713Z AUTO 26015G22KT 2 1/2SM -FZRA -SN OVC005 00/M01 A2941 RMK ICG
                 PAST HR SLP966 =
2017-11-18 07:11 METAR CYPD 180711Z AUTO 26015G22KT 2 1/2SM -FZRA -SN OVC005 00/M01 A2941 RMK VIS
                 VRB 2-3 ICG INTMT SLP965 =
2017-11-18 07:00 METAR CYPD 180700Z AUTO 26014G21KT 2SM -SN OVC005 00/M01 A2941 RMK ICG INTMT
                 SLP965 =
2017-11-18 06:44 METAR CYPD 180644Z AUTO 26012G20KT 2 1/4SM -SN OVC005 00/M00 A2941 RMK ICG
                 SLP965 =
2017-11-18 06:16 METAR CYPD 180616Z AUTO 26015G22KT 2 1/4SM -SN OVC007 00/M01 A2941 RMK SLP963 =
2017-11-18 06:12 METAR CYPD 180612Z AUTO 26011G22KT 2 1/2SM -RASN OVC007 00/M00 A2941 RMK SLP963
                 =
2017-11-18 06:10 METAR CYPD 180610Z AUTO 25015G23KT 3SM -RASN OVC007 00/M00 A2941 RMK SLP963 =
2017-11-18 06:04 METAR CYPD 180604Z AUTO 25015G23KT 4SM -RA BR OVC007 01/M00 A2941 RMK SLP963 =
2017-11-18 06:00 METAR CYPD 180600Z AUTO 26013G21KT 5SM BR OVC007 01/M00 A2940 RMK SLP962 =
2017-11-18 05:01 METAR CYPD 180501Z AUTO 27014G23KT 9SM OVC009 01/00 A2938 RMK SLP956 =
2017-11-18 05:00 METAR CYPD 180500Z AUTO 27016G21KT 9SM -RA BKN009 OVC013 01/00 A2938 RMK SLP956
                 =
2017-11-18 04:02 METAR CYPD 180402Z AUTO 27021G28KT 9SM -RA OVC013 02/00 A2937 RMK SLP951 =
2017-11-18 04:00 METAR CYPD 180400Z AUTO 27021G27KT 9SM OVC013 02/00 A2937 RMK SLP950 =
2017-11-18 03:45 METAR CYPD 180345Z AUTO 27019G29KT 9SM BKN013 OVC018 02/00 A2936 RMK SLP948 =
2017-11-18 03:32 METAR CYPD 180332Z AUTO 27014G23KT 9SM -RA BKN013 OVC018 02/00 A2936 RMK SLP948
                 =
2017-11-18 03:00 METAR CYPD 180300Z AUTO 27019G27KT 9SM BKN014 OVC021 02/00 A2935 RMK SLP944 =
2017-11-18 02:53 METAR CYPD 180253Z AUTO 27017G28KT 9SM BKN012 OVC020 02/00 A2935 RMK SLP944 =
2017-11-18 02:24 METAR CYPD 180224Z AUTO 27017G24KT 6SM -RA BR OVC014 02/01 A2936 RMK SLP947 =
2017-11-18 02:16 METAR CYPD 180216Z AUTO 27013G25KT 5SM -RA BR OVC014 02/00 A2936 RMK SLP947 =
2017-11-18 02:00 METAR CYPD 180200Z AUTO 26010G25KT 9SM -RA OVC018 03/00 A2936 RMK SLP947 =
2017-11-18 01:50 METAR CYPD 180150Z AUTO 25017G24KT 9SM -RA OVC018 03/00 A2936 RMK SLP947 =
2017-11-18 01:16 METAR CYPD 180116Z AUTO 26014G23KT 9SM BKN022 OVC027 03/M00 A2935 RMK SLP943 =
2017-11-18 01:05 METAR CYPD 180105Z AUTO 26013G24KT 9SM -RA OVC022 03/M00 A2935 RMK SLP942
2017-11-18 01:00 METAR CYPD 180100Z AUTO 26011G24KT 9SM BKN022 OVC028 03/M00 A2935 RMK SLP942 =
2017-11-18 00:00 METAR CYPD 180000Z AUTO 25016G23KT 9SM BKN024 OVC055 03/M00 A2933 RMK SLP938 =
2017-11-17 23:58 METAR CYPD 172358Z AUTO 26017G23KT 9SM BKN024 OVC055 03/M00 A2933 RMK SLP938 =
2017-11-17 23:41 METAR CYPD 172341Z AUTO 26013G21KT 9SM SCT024 OVC050 03/M00 A2932 RMK SLP935 =

Support USWX by starting your Amazon purchase here.